IE-0047 weather

Fethard Airstrip
Fethard, County Tipperary, Ireland

Public forecast

Using degrees Celsius for public forecast. Weather courtesy of forecast.io.

Closest aviation weather report (METAR) to Fethard Airstrip

Report is more than 6 hours old.

Closest report is Waterford Airport, 29.3 nm (54.2 km) SE. Retrieved 2020/05/26 19:30 UTC (9 hours ago):

EIWF 261930Z 22006KT 9999 SCT006 BKN053 13/12 Q1037

Closest aviation forecast (TAF) to Fethard Airstrip

Closest forecast is Shannon Airport, 45.6 nm (84.4 km) WNW. Retrieved 2020-05-27 00:43 UTC (4 hours ago):

TAF EINN 262300Z 2700/2724 35005KT 9999 BKN040 PROB30 TEMPO 2705/2707 4000 BR BECMG 2715/2717 32013KT BECMG 2720/2722 24006KT BECMG 2722/2724 VRB03KT